Time;durP1;ratioP1;P1;durP2;ratioP2;P2;SDS_P1;SDS_P2;PMS_P1;PMS_P2;Temp;Humidity;BMP_temperature;BMP_pressure;BME280_temperature;BME280_humidity;BME280_pressure;Samples;Min_cycle;Max_cycle;Signal;HPM_P1;HPM_P2
2022/06/24 00:00:16;;;;;;;14.60;6.78;;;;;;;18.45;63.86;99199.09;4996949;28;20108;-44
2022/06/24 00:02:50;;;;;;;13.43;7.75;;;;;;;18.39;63.62;99188.03;5000401;28;20061;-45
2022/06/24 00:05:17;;;;;;;13.05;7.05;;;;;;;18.39;63.47;99194.13;4998632;28;20623;-44
2022/06/24 00:12:59;;;;;;;17.23;9.88;;;;;;;18.79;63.71;99195.69;5096948;27;20398;-44
2022/06/24 00:15:32;;;;;;;12.50;8.65;;;;;;;18.47;64.33;99185.88;5043415;28;20599;-44
2022/06/24 00:18:19;;;;;;;13.75;8.00;;;;;;;18.31;64.19;99186.63;5041801;28;20045;-44
2022/06/24 05:03:09;;;;;;;29.52;12.63;;;;;;;18.06;70.68;99020.13;5028590;27;20406;-44
2022/06/24 05:05:36;;;;;;;27.55;13.82;;;;;;;18.09;70.23;99019.13;5013224;28;20570;-44
2022/06/24 05:08:04;;;;;;;29.73;13.02;;;;;;;18.10;70.40;99016.44;5017234;28;20139;-44
2022/06/24 05:10:31;;;;;;;37.13;14.07;;;;;;;18.13;70.28;99020.69;5009498;28;20041;-42
2022/06/24 05:12:57;;;;;;;36.03;14.98;;;;;;;18.16;70.53;99020.53;5010384;28;20049;-43
2022/06/24 05:15:24;;;;;;;35.13;14.05;;;;;;;18.17;70.05;99026.63;5005949;28;20120;-43
2022/06/24 05:17:51;;;;;;;36.65;14.80;;;;;;;18.20;70.84;99014.19;5008921;28;20060;-44
2022/06/24 05:20:18;;;;;;;38.10;14.02;;;;;;;18.22;70.29;99015.00;5006908;28;20124;-42
2022/06/24 05:22:44;;;;;;;34.45;13.30;;;;;;;18.24;70.67;99023.59;5014029;28;20080;-43
2022/06/24 05:25:11;;;;;;;34.67;13.23;;;;;;;18.27;70.82;99016.53;5002518;28;20054;-42
2022/06/24 05:27:38;;;;;;;33.70;13.52;;;;;;;18.29;70.75;99009.41;5008602;28;20482;-44
2022/06/24 05:30:05;;;;;;;33.53;13.85;;;;;;;18.33;70.02;99019.66;5009275;28;20053;-44
2022/06/24 05:32:32;;;;;;;30.77;12.88;;;;;;;18.34;70.58;99015.28;5020780;28;20050;-43
2022/06/24 05:34:59;;;;;;;37.20;13.45;;;;;;;18.34;70.24;99007.41;5027813;28;20053;-44
2022/06/24 05:37:26;;;;;;;34.17;14.00;;;;;;;18.34;70.16;99007.41;5028095;28;20099;-44
2022/06/24 05:39:53;;;;;;;36.17;13.52;;;;;;;18.36;70.19;99002.94;5026668;28;20080;-48
2022/06/24 05:42:19;;;;;;;40.75;13.48;;;;;;;18.34;70.70;99003.00;5006193;28;20046;-47
2022/06/24 05:44:46;;;;;;;36.22;13.18;;;;;;;18.34;70.15;98999.56;5003122;28;20558;-45
2022/06/24 05:47:12;;;;;;;40.38;14.07;;;;;;;18.31;70.80;99002.34;5019131;28;20115;-43
2022/06/24 05:49:39;;;;;;;35.78;13.90;;;;;;;18.32;69.84;98998.78;5022094;28;20099;-47
2022/06/24 05:52:07;;;;;;;35.35;14.05;;;;;;;18.33;70.39;99001.31;5025818;28;20042;-44
2022/06/24 05:57:20;;;;;;;40.55;13.82;;;;;;;18.34;70.11;98997.75;5024734;28;20498;-47
2022/06/24 05:59:46;;;;;;;43.42;14.10;;;;;;;18.34;70.38;98987.28;5024427;28;20049;-44
2022/06/24 06:02:13;;;;;;;44.70;14.30;;;;;;;18.35;69.86;98988.13;5008651;28;20042;-43
2022/06/24 06:04:39;;;;;;;46.42;14.15;;;;;;;18.38;70.11;98985.38;5008261;28;20046;-46
2022/06/24 06:07:06;;;;;;;43.53;14.15;;;;;;;18.39;69.89;98994.06;5001406;28;20101;-45
2022/06/24 06:09:33;;;;;;;41.60;13.80;;;;;;;18.40;70.39;98991.34;5032961;28;20509;-45
2022/06/24 06:11:59;;;;;;;38.85;13.48;;;;;;;18.42;69.71;98993.91;5025065;28;20517;-44
2022/06/24 06:14:26;;;;;;;47.65;14.43;;;;;;;18.45;69.78;98996.38;5008677;28;20095;-45
2022/06/24 06:16:59;;;;;;;39.97;14.10;;;;;;;18.47;69.33;98992.72;5004605;28;20161;-46
2022/06/24 06:19:26;;;;;;;40.50;14.55;;;;;;;18.48;70.26;98989.16;5017261;28;20053;-44
2022/06/24 06:21:53;;;;;;;37.13;13.45;;;;;;;18.50;70.03;98997.81;5011008;28;20042;-45
2022/06/24 06:24:20;;;;;;;36.67;14.38;;;;;;;18.52;69.84;98997.75;5015438;28;20042;-45
2022/06/24 06:26:48;;;;;;;32.67;12.50;;;;;;;18.52;69.42;99000.38;5016659;28;20054;-45
2022/06/24 06:29:14;;;;;;;33.03;13.07;;;;;;;18.52;69.70;99004.75;5019151;28;20068;-43
2022/06/24 06:31:42;;;;;;;29.17;11.40;;;;;;;18.50;69.86;98997.81;5021086;28;20049;-45
2022/06/24 06:34:08;;;;;;;26.42;11.40;;;;;;;18.48;69.07;98996.22;5026572;28;20085;-42
2022/06/24 06:36:35;;;;;;;22.52;11.10;;;;;;;18.46;69.51;98985.81;5019957;28;20058;-44
2022/06/24 06:39:02;;;;;;;25.05;11.18;;;;;;;18.46;69.66;98985.81;5018095;28;20060;-45
2022/06/24 06:41:28;;;;;;;33.10;12.38;;;;;;;18.48;69.05;98991.78;4994576;28;20057;-47
2022/06/24 06:43:55;;;;;;;28.80;11.70;;;;;;;18.49;68.97;98990.88;4988919;28;20514;-43
2022/06/24 06:46:24;;;;;;;33.55;13.25;;;;;;;18.52;69.47;98994.25;4990918;28;20159;-45
2022/06/24 06:48:51;;;;;;;37.33;14.15;;;;;;;18.48;68.93;98989.16;4987100;28;20086;-46
2022/06/24 06:51:17;;;;;;;31.88;12.20;;;;;;;18.45;68.88;98989.34;5007354;28;20559;-47
2022/06/24 06:53:44;;;;;;;33.03;11.48;;;;;;;18.40;69.35;98985.28;5012671;28;20508;-45
2022/06/24 06:56:11;;;;;;;31.60;12.48;;;;;;;18.35;68.95;98990.75;5011182;28;20053;-46
2022/06/24 06:58:37;;;;;;;29.55;13.23;;;;;;;18.33;68.91;99000.47;5017847;28;20525;-45
2022/06/24 07:01:04;;;;;;;28.58;11.80;;;;;;;18.29;68.97;98996.31;5005120;28;20107;-46
2022/06/24 07:03:31;;;;;;;25.73;11.00;;;;;;;18.27;69.47;98998.19;5001510;28;20046;-45
2022/06/24 07:05:58;;;;;;;30.17;12.05;;;;;;;18.24;69.54;98997.41;4999921;28;20094;-43
2022/06/24 07:08:25;;;;;;;29.50;12.05;;;;;;;18.23;69.85;98985.22;5002984;28;20120;-45
2022/06/24 07:10:51;;;;;;;30.10;11.15;;;;;;;18.23;68.99;98990.47;5008172;28;20060;-43
2022/06/24 07:13:19;;;;;;;24.17;10.70;;;;;;;18.25;69.15;98993.00;5006972;28;20057;-44
2022/06/24 07:15:46;;;;;;;23.30;9.80;;;;;;;18.20;68.68;98990.63;5013409;28;20050;-46
2022/06/24 07:18:13;;;;;;;27.67;10.32;;;;;;;18.23;69.12;98990.47;5012833;28;20073;-46
2022/06/24 07:20:40;;;;;;;29.95;11.27;;;;;;;18.24;68.69;98986.91;5009088;28;20050;-47
2022/06/24 07:23:06;;;;;;;29.73;11.70;;;;;;;18.29;69.04;98981.44;5006244;28;20089;-47
2022/06/24 07:25:33;;;;;;;31.75;11.23;;;;;;;18.37;69.29;98978.41;5000733;28;20050;-46
2022/06/24 07:28:00;;;;;;;28.70;10.82;;;;;;;18.46;69.50;98980.56;4991192;28;20039;-45
2022/06/24 07:30:28;;;;;;;25.40;11.23;;;;;;;18.56;69.00;98977.44;4984736;28;20046;-46
2022/06/24 07:32:54;;;;;;;24.50;11.52;;;;;;;18.63;69.16;98976.19;5006032;28;20079;-46
2022/06/24 07:35:21;;;;;;;27.33;11.35;;;;;;;18.69;68.71;98973.25;5012533;28;20135;-44
2022/06/24 07:38:08;;;;;;;26.20;10.48;;;;;;;18.75;68.58;98969.44;5010457;28;20081;-45
2022/06/24 07:40:34;;;;;;;28.92;12.90;;;;;;;18.83;68.29;98963.75;5009489;28;20104;-46
2022/06/24 07:43:01;;;;;;;31.80;12.13;;;;;;;18.92;68.25;98965.91;5021456;28;20049;-47
2022/06/24 07:45:28;;;;;;;29.25;11.25;;;;;;;19.04;68.64;98963.53;5021776;28;20049;-43
2022/06/24 07:47:54;;;;;;;25.95;11.05;;;;;;;19.15;68.19;98955.91;5017760;28;20049;-43
2022/06/24 07:50:21;;;;;;;26.77;10.98;;;;;;;19.22;68.03;98962.50;5026084;28;20050;-44
2022/06/24 07:52:48;;;;;;;26.63;11.02;;;;;;;19.26;67.61;98956.16;5022395;28;20053;-44
2022/06/24 07:58:01;;;;;;;29.10;12.13;;;;;;;19.24;66.88;98965.06;5007604;28;20050;-46
2022/06/24 08:00:28;;;;;;;35.17;13.48;;;;;;;19.27;67.17;98970.13;5024429;28;20045;-46
2022/06/24 08:02:54;;;;;;;33.72;13.23;;;;;;;19.30;66.82;98958.63;5020282;28;20041;-44
2022/06/24 08:05:21;;;;;;;29.67;12.57;;;;;;;19.31;66.88;98957.66;5020955;28;20049;-45
2022/06/24 08:07:48;;;;;;;32.05;12.18;;;;;;;19.33;67.02;98956.69;5008254;28;20050;-46
2022/06/24 08:10:14;;;;;;;29.95;12.52;;;;;;;19.33;67.08;98959.31;4990659;28;20065;-45
2022/06/24 08:12:41;;;;;;;28.73;12.80;;;;;;;19.39;66.99;98952.84;4995333;28;20050;-44
2022/06/24 08:15:07;;;;;;;25.30;12.70;;;;;;;19.48;67.24;98949.69;5005273;28;20045;-46
2022/06/24 08:17:34;;;;;;;29.05;13.13;;;;;;;19.65;67.01;98947.84;5022801;28;20456;-45
2022/06/24 08:20:01;;;;;;;26.48;11.93;;;;;;;19.80;66.68;98950.53;5022516;28;20048;-44
2022/06/24 08:22:27;;;;;;;26.42;12.23;;;;;;;19.97;66.45;98942.50;5013502;28;20042;-44
2022/06/24 08:24:54;;;;;;;24.90;12.48;;;;;;;20.11;66.11;98951.38;5022727;28;20646;-45
2022/06/24 08:27:40;;;;;;;26.98;13.23;;;;;;;20.27;65.92;98959.19;5011192;28;20085;-43
2022/06/24 08:30:08;;;;;;;28.17;12.30;;;;;;;20.40;65.97;98956.66;4989863;28;20050;-45
2022/06/24 08:32:34;;;;;;;27.80;12.40;;;;;;;20.55;64.94;98947.81;4988780;28;20526;-43
2022/06/24 08:35:01;;;;;;;22.60;10.10;;;;;;;20.67;64.91;98945.38;4988536;28;20571;-44
2022/06/24 08:37:48;;;;;;;22.35;11.02;;;;;;;20.72;64.37;98950.31;4995630;28;20464;-45
2022/06/24 08:40:15;;;;;;;20.33;10.82;;;;;;;20.70;63.51;98950.41;4997685;28;20062;-43
2022/06/24 08:42:44;;;;;;;18.52;10.00;;;;;;;20.71;63.41;98956.53;5021551;28;20045;-43
2022/06/24 08:45:12;;;;;;;21.23;10.88;;;;;;;20.71;63.67;98962.66;4991111;28;20050;-44
2022/06/24 08:47:40;;;;;;;20.77;11.10;;;;;;;20.63;62.73;98965.75;4986462;28;20050;-43
2022/06/24 08:50:07;;;;;;;27.63;12.55;;;;;;;20.47;63.08;98957.94;4998837;28;20046;-45
2022/06/24 08:52:34;;;;;;;18.23;10.52;;;;;;;20.39;63.46;98968.09;5002903;28;20041;-45
2022/06/24 08:55:04;;;;;;;21.50;12.32;;;;;;;20.35;63.10;98958.69;5021080;28;20137;-44
2022/06/24 08:57:31;;;;;;;20.63;12.02;;;;;;;20.33;63.65;98957.97;5020921;28;20107;-45
2022/06/24 08:59:58;;;;;;;21.45;11.40;;;;;;;20.34;63.63;98959.66;5023990;28;20053;-47
2022/06/24 09:02:24;;;;;;;23.90;13.15;;;;;;;20.31;63.47;98959.81;5018941;28;20077;-46
2022/06/24 09:04:51;;;;;;;19.05;11.40;;;;;;;20.33;63.67;98957.97;5005077;28;20049;-46
2022/06/24 09:07:27;;;;;;;20.77;11.32;;;;;;;20.34;64.08;98952.63;5003823;28;20066;-44
2022/06/24 09:09:59;;;;;;;19.88;11.38;;;;;;;20.32;63.14;98949.22;4995452;28;20053;-45
2022/06/24 09:12:30;;;;;;;21.45;11.48;;;;;;;20.34;63.71;98949.13;4996247;28;20046;-45
2022/06/24 09:15:03;;;;;;;19.77;10.02;;;;;;;20.46;64.03;98943.09;5008026;28;20045;-45
2022/06/24 09:17:31;;;;;;;17.02;9.90;;;;;;;20.64;63.45;98942.91;5016636;28;20046;-44
2022/06/24 09:20:17;;;;;;;15.75;10.05;;;;;;;20.77;63.60;98938.56;5038685;28;20061;-45
2022/06/24 09:23:06;;;;;;;19.30;10.20;;;;;;;20.92;62.87;98949.09;5018959;28;20077;-46
2022/06/24 09:25:54;;;;;;;15.40;8.73;;;;;;;20.93;62.54;98950.78;5017076;28;20506;-45
2022/06/24 09:31:06;;;;;;;19.02;11.43;;;;;;;21.15;60.97;98949.41;5057037;28;20418;-43
2022/06/24 09:33:44;;;;;;;17.90;10.20;;;;;;;20.91;61.85;98936.88;5024813;28;20379;-43
2022/06/24 09:36:12;;;;;;;17.55;9.40;;;;;;;21.03;62.77;98936.09;5022223;28;20058;-43
2022/06/24 09:38:55;;;;;;;15.48;8.68;;;;;;;21.24;62.14;98937.44;5025749;28;20073;-44
2022/06/24 09:41:23;;;;;;;14.13;7.35;;;;;;;21.37;61.82;98932.19;5004353;28;20058;-44
2022/06/24 09:43:52;;;;;;;14.02;8.45;;;;;;;21.43;61.30;98935.28;5021430;28;20037;-45
2022/06/24 09:46:21;;;;;;;16.48;9.10;;;;;;;21.52;61.46;98931.19;5023969;28;20532;-44
2022/06/24 09:48:51;;;;;;;13.77;7.40;;;;;;;21.60;60.64;98937.72;5024653;28;20082;-44
2022/06/24 09:51:18;;;;;;;13.57;7.10;;;;;;;21.61;60.73;98939.44;5023529;28;20587;-44
2022/06/24 09:53:45;;;;;;;12.07;7.03;;;;;;;21.55;60.89;98930.97;5024818;28;20053;-45
2022/06/24 09:56:13;;;;;;;11.88;6.90;;;;;;;21.53;60.85;98940.78;5023521;28;20108;-45
2022/06/24 09:58:43;;;;;;;18.38;8.57;;;;;;;21.47;60.33;98937.72;5017975;28;20054;-44
2022/06/24 10:01:10;;;;;;;11.63;7.35;;;;;;;21.39;60.25;98946.97;5051980;28;20532;-43
2022/06/24 10:03:38;;;;;;;15.90;7.80;;;;;;;21.34;60.39;98937.69;5021787;28;20050;-45
2022/06/24 10:06:10;;;;;;;11.82;7.38;;;;;;;21.23;60.75;98941.84;5023115;28;20050;-43
2022/06/24 10:08:40;;;;;;;11.50;6.53;;;;;;;21.11;60.50;98942.66;5025420;28;20046;-46
2022/06/24 10:11:27;;;;;;;16.52;8.18;;;;;;;20.99;61.01;98946.91;5020674;28;20131;-45
2022/06/24 10:13:55;;;;;;;17.13;7.50;;;;;;;20.90;60.73;98941.28;5026847;28;20049;-43
2022/06/24 10:16:23;;;;;;;15.43;8.10;;;;;;;20.79;61.06;98938.47;5023343;28;20049;-44
2022/06/24 10:18:51;;;;;;;15.35;8.40;;;;;;;20.72;61.26;98934.53;5024600;28;20056;-43
2022/06/24 10:21:19;;;;;;;13.82;7.75;;;;;;;20.64;61.11;98943.75;5023387;28;20072;-44
2022/06/24 10:26:26;;;;;;;18.77;7.43;;;;;;;20.86;62.18;98928.38;5046321;27;20402;-43
2022/06/24 10:34:33;;;;;;;16.15;8.57;;;;;;;21.37;61.22;98942.72;5054298;28;20937;-43
2022/06/24 10:39:46;;;;;;;10.70;6.40;;;;;;;21.24;60.94;98943.53;5062224;28;20403;-45
2022/06/24 10:42:14;;;;;;;16.27;6.15;;;;;;;21.16;60.74;98935.28;5023575;28;20046;-45
2022/06/24 10:45:02;;;;;;;11.50;6.28;;;;;;;21.13;61.32;98935.50;5022885;28;20188;-44
2022/06/24 10:50:15;;;;;;;10.93;6.45;;;;;;;21.40;61.37;98942.53;5081880;27;20401;-45
2022/06/24 10:58:03;;;;;;;12.35;6.60;;;;;;;21.81;60.56;98936.34;5103858;27;20397;-47
2022/06/24 11:03:22;;;;;;;12.88;7.80;;;;;;;22.28;60.52;98933.16;5024166;27;20410;-46
2022/06/24 11:05:51;;;;;;;12.25;7.70;;;;;;;22.63;60.67;98921.09;5020010;28;20053;-46
2022/06/24 11:08:20;;;;;;;13.07;6.70;;;;;;;22.97;60.02;98920.47;5022437;28;20056;-49
2022/06/24 11:10:49;;;;;;;10.80;6.78;;;;;;;23.17;58.57;98918.19;5019681;28;20057;-44
2022/06/24 11:13:17;;;;;;;7.95;6.15;;;;;;;23.33;58.60;98915.22;5020634;28;20599;-45
2022/06/24 11:15:49;;;;;;;8.43;6.03;;;;;;;23.42;57.83;98921.66;5020364;28;20041;-48
2022/06/24 11:18:19;;;;;;;7.93;5.22;;;;;;;23.38;57.09;98915.78;5015098;28;20058;-49
2022/06/24 11:23:25;;;;;;;6.88;3.90;;;;;;;23.09;56.49;98922.22;5049173;27;20418;-48
2022/06/24 11:25:56;;;;;;;8.38;4.63;;;;;;;22.96;56.88;98914.34;5034632;28;20498;-43
2022/06/24 11:28:25;;;;;;;7.20;4.60;;;;;;;22.81;56.76;98918.97;5039589;28;20516;-44
2022/06/24 11:30:54;;;;;;;9.10;4.50;;;;;;;22.71;56.70;98913.50;5047145;28;20397;-45
2022/06/24 11:33:22;;;;;;;7.32;4.07;;;;;;;22.75;56.81;98916.75;5037552;28;20068;-45
2022/06/24 11:35:50;;;;;;;10.57;3.92;;;;;;;22.79;56.19;98915.56;5045364;28;20068;-44
2022/06/24 11:38:22;;;;;;;5.35;3.80;;;;;;;22.99;56.97;98910.63;5049947;28;20060;-43
2022/06/24 11:40:49;;;;;;;6.65;3.08;;;;;;;23.18;55.78;98910.16;5049924;28;20041;-43
2022/06/24 11:43:17;;;;;;;5.70;3.38;;;;;;;23.33;55.25;98902.00;5038543;28;20817;-44
2022/06/24 11:45:46;;;;;;;4.28;2.60;;;;;;;23.39;54.27;98906.03;5037386;28;20103;-44
2022/06/24 11:48:20;;;;;;;5.90;3.53;;;;;;;23.40;54.43;98907.75;5040853;28;20103;-44
2022/06/24 11:50:48;;;;;;;7.50;4.10;;;;;;;23.35;54.00;98906.28;5036521;28;20119;-46
2022/06/24 11:53:16;;;;;;;7.80;4.68;;;;;;;23.32;53.33;98905.63;5029906;28;20452;-45
2022/06/24 11:55:52;;;;;;;4.60;2.53;;;;;;;23.28;53.62;98894.47;5030462;28;20045;-44
2022/06/24 11:58:20;;;;;;;6.50;3.88;;;;;;;23.34;53.41;98893.97;5039516;28;20394;-47
2022/06/24 12:00:50;;;;;;;5.82;2.67;;;;;;;23.35;53.84;98885.16;5042881;28;20076;-45
2022/06/24 12:03:16;;;;;;;;;;;;;;;23.29;53.35;98890.00;5038078;28;20049;-46
2022/06/24 12:05:45;;;;;;;3.78;2.40;;;;;;;23.47;53.73;98893.94;5035268;28;19921;-45
2022/06/24 12:08:12;;;;;;;5.25;2.80;;;;;;;23.62;52.92;98884.03;5037180;28;20061;-43
2022/06/24 12:10:55;;;;;;;3.78;2.53;;;;;;;23.75;53.44;98881.25;5033799;28;20041;-43
2022/06/24 12:13:29;;;;;;;4.45;2.08;;;;;;;23.87;52.90;98873.34;5034603;28;20037;-44
2022/06/24 12:15:57;;;;;;;3.95;2.20;;;;;;;23.91;52.53;98873.97;5036849;28;20115;-44
2022/06/24 12:18:25;;;;;;;4.22;2.67;;;;;;;23.93;51.77;98877.31;5040433;28;20053;-44
2022/06/24 12:21:07;;;;;;;3.47;2.15;;;;;;;24.05;52.47;98871.09;5027227;28;20045;-43
2022/06/24 12:26:15;;;;;;;2.88;1.90;;;;;;;24.52;52.41;98870.13;5021970;28;20419;-43
2022/06/24 12:28:42;;;;;;;3.67;1.85;;;;;;;24.73;52.62;98869.34;4997874;28;20145;-44
2022/06/24 12:31:11;;;;;;;4.15;2.00;;;;;;;24.84;51.78;98866.66;4998018;28;20050;-45
2022/06/24 12:33:54;;;;;;;5.00;2.38;;;;;;;24.92;50.99;98874.00;5005770;28;20080;-44
2022/06/24 12:36:33;;;;;;;3.78;2.47;;;;;;;25.10;51.48;98876.97;5002068;28;20101;-44
2022/06/24 12:39:05;;;;;;;3.90;1.70;;;;;;;25.27;51.20;98864.13;5000679;28;20065;-44
2022/06/24 12:41:48;;;;;;;4.15;1.92;;;;;;;25.36;50.88;98865.97;5002912;28;20054;-43
2022/06/24 12:44:16;;;;;;;3.20;2.10;;;;;;;25.50;50.45;98866.66;5003733;28;20042;-46
2022/06/24 12:55:09;;;;;;;4.70;2.90;;;;;;;25.85;49.83;98854.00;5054875;28;20399;-44
2022/06/24 12:57:36;;;;;;;2.97;2.67;;;;;;;26.00;49.20;98844.72;5020876;28;20088;-46
2022/06/24 13:00:08;;;;;;;4.88;2.25;;;;;;;26.05;48.07;98844.34;5022994;28;20101;-50
2022/06/24 13:02:36;;;;;;;3.28;2.67;;;;;;;26.11;47.82;98840.31;5016276;28;20133;-46
2022/06/24 13:05:03;;;;;;;4.75;3.03;;;;;;;26.12;47.87;98848.13;5023475;28;20482;-43
2022/06/24 13:07:34;;;;;;;2.80;2.42;;;;;;;25.96;47.30;98839.81;5024696;28;20046;-44
2022/06/24 13:10:02;;;;;;;2.92;2.63;;;;;;;25.83;47.24;98835.59;5018528;28;20049;-45
2022/06/24 13:12:29;;;;;;;5.88;3.05;;;;;;;25.82;48.10;98831.25;5020950;28;20513;-44
2022/06/24 13:14:55;;;;;;;3.40;3.05;;;;;;;25.89;48.03;98829.75;5024405;28;20062;-43
2022/06/24 13:17:22;;;;;;;5.78;3.03;;;;;;;25.83;47.25;98819.66;5021337;28;20064;-43
2022/06/24 13:19:48;;;;;;;4.22;2.92;;;;;;;25.69;46.92;98825.34;5020460;28;20099;-44
2022/06/24 13:22:16;;;;;;;3.78;3.42;;;;;;;25.46;47.20;98828.13;5017724;28;20065;-43
2022/06/24 13:24:43;;;;;;;6.40;3.35;;;;;;;25.34;47.32;98822.03;5020552;28;20042;-43
2022/06/24 13:27:09;;;;;;;4.47;2.85;;;;;;;25.24;47.34;98825.47;5020713;28;20125;-44
2022/06/24 13:29:36;;;;;;;2.97;2.65;;;;;;;25.09;47.45;98822.28;5018667;28;20498;-45
2022/06/24 13:32:03;;;;;;;3.63;2.90;;;;;;;24.95;47.59;98825.25;5020005;28;20054;-45
2022/06/24 13:34:30;;;;;;;5.22;3.05;;;;;;;24.78;47.45;98836.22;5023619;28;20041;-44
2022/06/24 13:36:57;;;;;;;4.72;3.03;;;;;;;24.65;47.72;98828.44;5022129;28;20053;-43
2022/06/24 13:39:24;;;;;;;4.15;3.30;;;;;;;24.53;47.63;98826.81;5017196;28;20054;-43
2022/06/24 13:41:50;;;;;;;4.95;2.83;;;;;;;24.31;47.76;98827.69;5017302;28;20046;-44
2022/06/24 13:44:17;;;;;;;5.15;3.50;;;;;;;24.15;48.32;98828.94;5017316;28;20073;-43
2022/06/24 13:46:44;;;;;;;5.07;3.10;;;;;;;24.03;48.18;98835.97;5020041;28;20062;-45
2022/06/24 13:49:11;;;;;;;4.45;3.83;;;;;;;23.93;48.78;98830.56;5022454;28;20057;-46
2022/06/24 13:51:38;;;;;;;5.03;3.42;;;;;;;23.88;49.04;98822.16;5036559;28;20560;-45
2022/06/24 13:54:04;;;;;;;5.00;3.75;;;;;;;23.86;49.07;98819.66;5038563;28;20095;-44
2022/06/24 13:56:32;;;;;;;4.47;2.38;;;;;;;23.90;49.19;98816.75;5042584;28;20612;-43
2022/06/24 13:58:59;;;;;;;4.20;3.10;;;;;;;23.93;49.59;98813.84;5036125;28;20724;-44
2022/06/24 14:01:27;;;;;;;6.32;3.47;;;;;;;23.90;49.66;98814.09;5038534;28;21685;-44
2022/06/24 14:03:53;;;;;;;5.15;3.72;;;;;;;23.95;49.97;98811.94;5037524;28;20067;-46
2022/06/24 14:06:20;;;;;;;6.53;4.53;;;;;;;24.01;49.66;98806.16;5026330;28;20053;-44
2022/06/24 14:08:47;;;;;;;5.57;3.28;;;;;;;24.05;50.23;98807.63;5021341;28;20441;-44
2022/06/24 14:11:14;;;;;;;5.65;3.65;;;;;;;24.09;50.03;98801.13;5023570;28;20052;-46
2022/06/24 14:13:41;;;;;;;5.40;3.78;;;;;;;24.16;49.74;98808.59;5024335;28;20034;-45
2022/06/24 14:16:07;;;;;;;4.47;4.00;;;;;;;24.21;50.18;98811.72;5024677;28;20053;-44
2022/06/24 14:18:54;;;;;;;4.43;3.60;;;;;;;24.29;49.64;98811.09;5024785;28;20076;-44
2022/06/24 14:21:21;;;;;;;5.20;4.00;;;;;;;24.33;49.66;98810.75;5027649;28;20107;-43
2022/06/24 14:24:51;;;;;;;6.05;3.92;;;;;;;24.34;49.29;98809.75;5025448;28;20405;-47
2022/06/24 14:26:34;;;;;;;4.50;3.60;;;;;;;24.37;49.69;98806.88;5026698;28;20049;-47
2022/06/24 14:29:01;;;;;;;7.03;3.38;;;;;;;24.45;49.32;98802.78;5019666;28;20559;-45
2022/06/24 14:31:27;;;;;;;7.47;4.20;;;;;;;24.57;49.79;98801.78;5024278;28;20084;-44
2022/06/24 14:33:54;;;;;;;6.38;3.67;;;;;;;24.69;49.71;98793.78;5026490;28;20041;-44
2022/06/24 14:36:20;;;;;;;6.22;3.90;;;;;;;24.72;49.44;98809.44;5026589;28;20058;-44
2022/06/24 14:41:33;;;;;;;4.20;3.05;;;;;;;24.73;49.27;98797.88;5021153;28;20046;-46
2022/06/24 14:44:00;;;;;;;5.50;4.13;;;;;;;24.56;48.78;98799.25;5022749;28;20103;-48
2022/06/24 14:46:27;;;;;;;5.55;3.60;;;;;;;24.67;49.37;98807.16;5025899;28;20056;-45
2022/06/24 14:48:53;;;;;;;3.75;3.22;;;;;;;24.73;48.61;98796.06;5018473;28;20096;-47
2022/06/24 14:51:35;;;;;;;5.75;3.33;;;;;;;24.74;48.42;98791.59;5022983;28;20049;-46
2022/06/24 14:54:02;;;;;;;4.13;2.97;;;;;;;24.72;48.61;98793.53;5022126;28;20045;-45
2022/06/24 14:56:29;;;;;;;5.43;3.75;;;;;;;24.63;48.21;98795.97;5021184;28;20061;-44
2022/06/24 14:58:55;;;;;;;4.78;3.88;;;;;;;24.47;48.11;98790.25;5022752;28;20054;-43
2022/06/24 15:01:22;;;;;;;4.38;3.75;;;;;;;24.24;48.53;98790.28;5021627;28;20049;-43
2022/06/24 15:03:49;;;;;;;5.70;4.45;;;;;;;24.06;48.46;98793.44;5023004;28;20064;-43
2022/06/24 15:06:16;;;;;;;5.53;3.88;;;;;;;23.90;48.34;98795.59;5022293;28;20041;-46
2022/06/24 15:08:43;;;;;;;5.50;3.05;;;;;;;23.80;49.56;98788.38;5020436;28;20053;-47
2022/06/24 15:11:10;;;;;;;4.35;3.80;;;;;;;23.76;49.60;98786.94;5023978;28;20096;-44
2022/06/24 15:13:36;;;;;;;7.18;4.25;;;;;;;23.70;49.62;98793.56;5026092;28;20049;-46
2022/06/24 15:16:03;;;;;;;6.65;3.63;;;;;;;23.57;49.58;98785.75;5023297;28;20061;-46
2022/06/24 15:18:29;;;;;;;4.38;3.38;;;;;;;23.45;49.89;98784.06;5017496;28;20140;-45
2022/06/24 15:20:56;;;;;;;6.00;4.28;;;;;;;23.33;50.09;98783.16;5022692;28;20057;-44
2022/06/24 15:23:32;;;;;;;9.15;4.05;;;;;;;23.24;51.01;98782.06;5024511;28;20041;-47
2022/06/24 15:25:59;;;;;;;6.13;3.55;;;;;;;23.20;49.89;98786.72;5021229;28;20058;-48
2022/06/24 15:28:26;;;;;;;6.40;3.55;;;;;;;23.07;50.47;98781.53;5016851;28;20053;-45
2022/06/24 15:30:53;;;;;;;5.30;3.42;;;;;;;23.18;51.13;98774.59;5018063;28;20127;-45
2022/06/24 15:33:20;;;;;;;7.95;4.30;;;;;;;23.34;50.57;98772.47;5017874;28;20666;-45
2022/06/24 15:35:47;;;;;;;6.20;4.05;;;;;;;23.50;50.36;98768.66;5020381;28;20063;-45
2022/06/24 15:38:13;;;;;;;5.30;4.40;;;;;;;23.64;50.59;98762.31;5023051;28;20095;-46
2022/06/24 15:40:40;;;;;;;4.78;4.30;;;;;;;23.80;49.78;98756.66;5021186;28;20099;-45
2022/06/24 15:43:07;;;;;;;6.03;4.70;;;;;;;23.83;50.10;98756.44;5024144;28;20489;-44
2022/06/24 15:45:33;;;;;;;5.07;3.92;;;;;;;23.79;49.46;98760.28;5020474;28;20065;-47
2022/06/24 15:48:00;;;;;;;5.85;4.53;;;;;;;23.65;49.73;98760.53;5020685;28;20509;-48
2022/06/24 15:50:26;;;;;;;5.43;3.72;;;;;;;23.64;50.17;98758.84;5024391;28;20053;-44
2022/06/24 15:52:53;;;;;;;6.22;4.22;;;;;;;23.60;49.70;98761.72;5022971;28;20486;-44
2022/06/24 15:55:20;;;;;;;6.25;3.90;;;;;;;23.55;49.86;98755.13;5020430;28;21019;-44
2022/06/24 15:57:47;;;;;;;6.60;4.65;;;;;;;23.52;49.92;98750.91;5025094;28;20061;-44
2022/06/24 16:00:14;;;;;;;5.20;3.38;;;;;;;23.57;49.69;98745.28;5020912;28;20691;-44
2022/06/24 16:02:40;;;;;;;5.82;3.10;;;;;;;23.70;50.32;98739.84;5021088;28;20046;-46
2022/06/24 16:05:08;;;;;;;4.70;3.97;;;;;;;23.97;49.54;98743.91;5018882;28;20079;-44
2022/06/24 16:07:36;;;;;;;7.00;3.47;;;;;;;24.11;49.07;98737.50;5021587;28;20053;-47
2022/06/24 16:10:03;;;;;;;4.70;4.20;;;;;;;24.15;48.88;98744.28;5022185;28;20744;-45
2022/06/24 16:12:30;;;;;;;4.75;3.03;;;;;;;24.13;48.50;98736.47;5023040;28;20062;-46
2022/06/24 16:15:00;;;;;;;6.80;4.32;;;;;;;24.12;48.52;98740.06;5018031;28;20045;-47
2022/06/24 16:17:27;;;;;;;7.78;4.57;;;;;;;24.08;48.86;98733.31;5019350;28;20049;-46
2022/06/24 16:19:55;;;;;;;4.32;3.88;;;;;;;24.01;48.99;98732.13;5023407;28;20048;-44
2022/06/24 16:22:33;;;;;;;4.80;4.40;;;;;;;23.93;49.43;98734.53;5022743;28;21020;-44
2022/06/24 16:30:33;;;;;;;6.03;4.03;;;;;;;23.62;49.11;98724.59;5020397;28;20517;-45
2022/06/24 16:32:59;;;;;;;4.55;2.30;;;;;;;23.50;49.93;98723.75;5023718;28;20667;-46
2022/06/24 16:35:26;;;;;;;6.13;3.58;;;;;;;23.34;49.54;98719.63;5022424;28;20075;-45
2022/06/24 16:37:53;;;;;;;6.45;4.72;;;;;;;23.27;50.25;98718.41;5017751;28;20079;-45
2022/06/24 16:40:20;;;;;;;5.55;3.67;;;;;;;23.20;51.01;98722.53;5024369;28;20053;-48
2022/06/24 16:45:33;;;;;;;4.60;4.10;;;;;;;23.21;51.19;98721.56;5021343;28;20049;-45
2022/06/24 16:47:59;;;;;;;4.72;3.33;;;;;;;23.14;51.41;98720.34;5023874;28;20777;-45
2022/06/24 16:50:26;;;;;;;5.78;3.55;;;;;;;23.03;50.62;98716.72;5027803;28;20111;-48
2022/06/24 16:52:53;;;;;;;5.07;2.28;;;;;;;22.91;51.00;98712.38;5027082;28;20621;-47
2022/06/24 16:55:20;;;;;;;5.43;2.92;;;;;;;22.84;51.57;98712.00;5025646;28;20445;-45
2022/06/24 16:57:48;;;;;;;6.00;2.70;;;;;;;22.64;51.67;98717.00;5019849;28;20452;-46
2022/06/24 17:00:16;;;;;;;4.88;3.55;;;;;;;22.55;52.09;98712.34;5023661;28;20133;-46
2022/06/24 17:02:43;;;;;;;5.18;3.72;;;;;;;22.42;52.17;98717.69;5027492;28;20547;-44
2022/06/24 17:05:10;;;;;;;7.63;5.22;;;;;;;22.25;53.35;98708.41;5025260;28;20053;-44
2022/06/24 17:07:37;;;;;;;4.53;3.67;;;;;;;22.24;53.27;98715.47;5020840;28;20506;-47
2022/06/24 17:10:05;;;;;;;6.00;4.60;;;;;;;22.17;53.30;98715.06;5023909;28;20050;-44
2022/06/24 17:12:31;;;;;;;6.38;4.15;;;;;;;22.08;53.76;98706.03;5024025;28;20056;-46
2022/06/24 17:14:58;;;;;;;4.90;4.22;;;;;;;22.07;53.60;98719.31;5020651;28;20049;-47